sensor_id;sensor_type;location;lat;lon;timestamp;P1;durP1;ratioP1;P2;durP2;ratioP2
51664;SDS011;37751;52.408;12.536;2023-04-01T00:00:11;6.35;;;1.30;;
51664;SDS011;37751;52.408;12.536;2023-04-01T00:02:40;4.53;;;1.30;;
51664;SDS011;37751;52.408;12.536;2023-04-01T00:05:09;3.70;;;1.45;;
51664;SDS011;37751;52.408;12.536;2023-04-01T00:07:38;3.38;;;1.40;;
51664;SDS011;37751;52.408;12.536;2023-04-01T00:10:07;3.72;;;1.45;;
51664;SDS011;37751;52.408;12.536;2023-04-01T00:12:35;5.28;;;1.27;;
51664;SDS011;37751;52.408;12.536;2023-04-01T00:15:04;3.03;;;1.33;;
51664;SDS011;37751;52.408;12.536;2023-04-01T00:17:33;2.30;;;1.20;;
51664;SDS011;37751;52.408;12.536;2023-04-01T00:20:01;2.65;;;1.00;;
51664;SDS011;37751;52.408;12.536;2023-04-01T00:22:29;3.05;;;1.60;;
51664;SDS011;37751;52.408;12.536;2023-04-01T00:24:57;7.38;;;1.27;;
51664;SDS011;37751;52.408;12.536;2023-04-01T00:27:24;2.58;;;1.23;;
51664;SDS011;37751;52.408;12.536;2023-04-01T00:29:52;3.67;;;1.45;;
51664;SDS011;37751;52.408;12.536;2023-04-01T00:32:19;7.00;;;1.65;;
51664;SDS011;37751;52.408;12.536;2023-04-01T00:34:49;4.10;;;1.80;;
51664;SDS011;37751;52.408;12.536;2023-04-01T00:37:19;5.43;;;1.48;;
51664;SDS011;37751;52.408;12.536;2023-04-01T00:39:47;5.32;;;1.67;;
51664;SDS011;37751;52.408;12.536;2023-04-01T00:42:15;2.58;;;1.30;;
51664;SDS011;37751;52.408;12.536;2023-04-01T00:44:45;3.92;;;1.85;;
51664;SDS011;37751;52.408;12.536;2023-04-01T00:47:15;5.03;;;1.85;;
51664;SDS011;37751;52.408;12.536;2023-04-01T00:49:44;4.90;;;1.90;;
51664;SDS011;37751;52.408;12.536;2023-04-01T00:52:15;3.67;;;1.60;;
51664;SDS011;37751;52.408;12.536;2023-04-01T00:54:46;4.85;;;2.03;;
51664;SDS011;37751;52.408;12.536;2023-04-01T00:57:15;5.00;;;1.85;;
51664;SDS011;37751;52.408;12.536;2023-04-01T00:59:53;6.38;;;1.85;;
51664;SDS011;37751;52.408;12.536;2023-04-01T01:02:21;4.10;;;1.25;;
51664;SDS011;37751;52.408;12.536;2023-04-01T01:04:49;2.58;;;1.33;;
51664;SDS011;37751;52.408;12.536;2023-04-01T01:29:06;3.92;;;1.40;;
51664;SDS011;37751;52.408;12.536;2023-04-01T01:34:22;6.22;;;1.60;;
51664;SDS011;37751;52.408;12.536;2023-04-01T01:37:00;2.83;;;1.27;;
51664;SDS011;37751;52.408;12.536;2023-04-01T01:39:30;5.50;;;1.60;;
51664;SDS011;37751;52.408;12.536;2023-04-01T01:42:00;5.18;;;1.30;;
51664;SDS011;37751;52.408;12.536;2023-04-01T01:44:30;3.03;;;1.45;;
51664;SDS011;37751;52.408;12.536;2023-04-01T01:47:00;2.58;;;1.40;;
51664;SDS011;37751;52.408;12.536;2023-04-01T01:49:28;5.25;;;1.52;;
51664;SDS011;37751;52.408;12.536;2023-04-01T01:51:57;4.65;;;1.38;;
51664;SDS011;37751;52.408;12.536;2023-04-01T01:54:25;12.75;;;1.92;;
51664;SDS011;37751;52.408;12.536;2023-04-01T01:56:55;3.95;;;1.90;;
51664;SDS011;37751;52.408;12.536;2023-04-01T01:59:30;6.30;;;2.40;;
51664;SDS011;37751;52.408;12.536;2023-04-01T02:02:00;15.77;;;2.90;;
51664;SDS011;37751;52.408;12.536;2023-04-01T02:04:35;3.70;;;1.98;;
51664;SDS011;37751;52.408;12.536;2023-04-01T02:07:07;6.25;;;1.70;;
51664;SDS011;37751;52.408;12.536;2023-04-01T02:09:38;4.13;;;1.85;;
51664;SDS011;37751;52.408;12.536;2023-04-01T02:12:10;8.20;;;1.73;;
51664;SDS011;37751;52.408;12.536;2023-04-01T02:14:45;4.72;;;1.35;;
51664;SDS011;37751;52.408;12.536;2023-04-01T02:17:29;7.38;;;1.65;;
51664;SDS011;37751;52.408;12.536;2023-04-01T02:22:56;9.63;;;2.05;;
51664;SDS011;37751;52.408;12.536;2023-04-01T02:25:27;7.57;;;1.50;;
51664;SDS011;37751;52.408;12.536;2023-04-01T02:27:57;9.40;;;1.98;;
51664;SDS011;37751;52.408;12.536;2023-04-01T02:30:26;7.38;;;1.52;;
51664;SDS011;37751;52.408;12.536;2023-04-01T02:32:55;3.00;;;1.27;;
51664;SDS011;37751;52.408;12.536;2023-04-01T02:35:24;6.40;;;1.58;;
51664;SDS011;37751;52.408;12.536;2023-04-01T02:37:55;7.07;;;1.95;;
51664;SDS011;37751;52.408;12.536;2023-04-01T02:40:23;4.97;;;1.80;;
51664;SDS011;37751;52.408;12.536;2023-04-01T02:42:51;6.93;;;1.73;;
51664;SDS011;37751;52.408;12.536;2023-04-01T02:45:18;6.38;;;2.03;;
51664;SDS011;37751;52.408;12.536;2023-04-01T02:47:46;6.65;;;2.00;;
51664;SDS011;37751;52.408;12.536;2023-04-01T02:50:13;7.30;;;2.05;;
51664;SDS011;37751;52.408;12.536;2023-04-01T02:52:41;8.18;;;1.70;;
51664;SDS011;37751;52.408;12.536;2023-04-01T02:55:08;4.60;;;1.60;;
51664;SDS011;37751;52.408;12.536;2023-04-01T02:57:38;7.05;;;1.85;;
51664;SDS011;37751;52.408;12.536;2023-04-01T03:00:07;5.05;;;2.28;;
51664;SDS011;37751;52.408;12.536;2023-04-01T03:02:38;7.28;;;2.15;;
51664;SDS011;37751;52.408;12.536;2023-04-01T03:05:06;7.05;;;2.25;;
51664;SDS011;37751;52.408;12.536;2023-04-01T03:07:34;9.00;;;2.28;;
51664;SDS011;37751;52.408;12.536;2023-04-01T03:10:02;7.70;;;1.92;;
51664;SDS011;37751;52.408;12.536;2023-04-01T03:12:29;8.13;;;2.20;;
51664;SDS011;37751;52.408;12.536;2023-04-01T03:14:56;9.48;;;2.10;;
51664;SDS011;37751;52.408;12.536;2023-04-01T03:17:37;6.05;;;2.15;;
51664;SDS011;37751;52.408;12.536;2023-04-01T03:20:05;10.90;;;2.03;;
51664;SDS011;37751;52.408;12.536;2023-04-01T03:22:35;6.43;;;2.15;;
51664;SDS011;37751;52.408;12.536;2023-04-01T03:25:04;7.13;;;2.08;;
51664;SDS011;37751;52.408;12.536;2023-04-01T03:27:32;7.78;;;1.95;;
51664;SDS011;37751;52.408;12.536;2023-04-01T03:30:02;6.18;;;2.15;;
51664;SDS011;37751;52.408;12.536;2023-04-01T03:32:35;7.18;;;2.50;;
51664;SDS011;37751;52.408;12.536;2023-04-01T03:35:03;5.82;;;1.67;;
51664;SDS011;37751;52.408;12.536;2023-04-01T03:37:31;9.27;;;2.22;;
51664;SDS011;37751;52.408;12.536;2023-04-01T03:39:59;7.60;;;2.03;;
51664;SDS011;37751;52.408;12.536;2023-04-01T03:42:26;5.05;;;2.08;;
51664;SDS011;37751;52.408;12.536;2023-04-01T03:44:54;6.32;;;1.80;;
51664;SDS011;37751;52.408;12.536;2023-04-01T03:47:21;5.90;;;2.38;;
51664;SDS011;37751;52.408;12.536;2023-04-01T03:49:50;10.80;;;2.25;;
51664;SDS011;37751;52.408;12.536;2023-04-01T03:52:17;6.90;;;2.10;;
51664;SDS011;37751;52.408;12.536;2023-04-01T03:54:45;7.40;;;2.40;;
51664;SDS011;37751;52.408;12.536;2023-04-01T03:57:13;7.10;;;2.55;;
51664;SDS011;37751;52.408;12.536;2023-04-01T03:59:41;9.65;;;2.78;;
51664;SDS011;37751;52.408;12.536;2023-04-01T04:02:09;5.07;;;2.20;;
51664;SDS011;37751;52.408;12.536;2023-04-01T04:04:37;5.15;;;1.98;;
51664;SDS011;37751;52.408;12.536;2023-04-01T04:07:05;6.63;;;2.03;;
51664;SDS011;37751;52.408;12.536;2023-04-01T04:09:52;5.40;;;2.22;;
51664;SDS011;37751;52.408;12.536;2023-04-01T04:12:20;5.47;;;2.20;;
51664;SDS011;37751;52.408;12.536;2023-04-01T04:14:48;9.13;;;2.33;;
51664;SDS011;37751;52.408;12.536;2023-04-01T04:17:15;6.30;;;2.05;;
51664;SDS011;37751;52.408;12.536;2023-04-01T04:19:44;3.88;;;1.90;;
51664;SDS011;37751;52.408;12.536;2023-04-01T04:22:12;5.38;;;1.73;;
51664;SDS011;37751;52.408;12.536;2023-04-01T04:24:40;6.88;;;2.30;;
51664;SDS011;37751;52.408;12.536;2023-04-01T04:27:11;6.38;;;2.50;;
51664;SDS011;37751;52.408;12.536;2023-04-01T04:29:51;11.95;;;2.63;;
51664;SDS011;37751;52.408;12.536;2023-04-01T04:32:19;6.15;;;2.20;;
51664;SDS011;37751;52.408;12.536;2023-04-01T04:34:47;6.55;;;2.53;;
51664;SDS011;37751;52.408;12.536;2023-04-01T04:37:15;10.07;;;2.80;;
51664;SDS011;37751;52.408;12.536;2023-04-01T04:39:43;8.65;;;2.40;;
51664;SDS011;37751;52.408;12.536;2023-04-01T04:42:11;8.60;;;2.67;;
51664;SDS011;37751;52.408;12.536;2023-04-01T04:44:39;7.82;;;2.47;;
51664;SDS011;37751;52.408;12.536;2023-04-01T04:47:07;11.57;;;2.83;;
51664;SDS011;37751;52.408;12.536;2023-04-01T04:49:36;10.88;;;3.28;;
51664;SDS011;37751;52.408;12.536;2023-04-01T04:52:07;7.05;;;2.90;;
51664;SDS011;37751;52.408;12.536;2023-04-01T04:54:36;8.02;;;2.88;;
51664;SDS011;37751;52.408;12.536;2023-04-01T04:57:04;6.95;;;3.47;;
51664;SDS011;37751;52.408;12.536;2023-04-01T04:59:38;9.60;;;2.80;;
51664;SDS011;37751;52.408;12.536;2023-04-01T05:02:11;8.13;;;3.08;;
51664;SDS011;37751;52.408;12.536;2023-04-01T05:04:39;8.75;;;3.00;;
51664;SDS011;37751;52.408;12.536;2023-04-01T05:07:09;9.82;;;3.47;;
51664;SDS011;37751;52.408;12.536;2023-04-01T05:09:39;6.07;;;2.53;;
51664;SDS011;37751;52.408;12.536;2023-04-01T05:12:07;9.77;;;3.22;;
51664;SDS011;37751;52.408;12.536;2023-04-01T05:14:55;10.05;;;3.05;;
51664;SDS011;37751;52.408;12.536;2023-04-01T05:17:23;6.63;;;3.05;;
51664;SDS011;37751;52.408;12.536;2023-04-01T05:19:52;11.48;;;3.13;;
51664;SDS011;37751;52.408;12.536;2023-04-01T05:22:20;8.70;;;3.05;;
51664;SDS011;37751;52.408;12.536;2023-04-01T05:24:47;11.07;;;3.03;;
51664;SDS011;37751;52.408;12.536;2023-04-01T05:27:16;6.35;;;2.95;;
51664;SDS011;37751;52.408;12.536;2023-04-01T05:29:44;6.25;;;3.13;;
51664;SDS011;37751;52.408;12.536;2023-04-01T05:32:32;10.15;;;2.47;;
51664;SDS011;37751;52.408;12.536;2023-04-01T05:35:00;7.53;;;2.55;;
51664;SDS011;37751;52.408;12.536;2023-04-01T05:37:28;8.77;;;3.25;;
51664;SDS011;37751;52.408;12.536;2023-04-01T05:39:56;8.82;;;2.97;;
51664;SDS011;37751;52.408;12.536;2023-04-01T05:42:25;8.43;;;2.60;;
51664;SDS011;37751;52.408;12.536;2023-04-01T05:44:53;8.38;;;2.97;;
51664;SDS011;37751;52.408;12.536;2023-04-01T05:47:48;9.27;;;3.20;;
51664;SDS011;37751;52.408;12.536;2023-04-01T05:50:17;7.07;;;2.40;;
51664;SDS011;37751;52.408;12.536;2023-04-01T05:52:45;5.40;;;2.10;;
51664;SDS011;37751;52.408;12.536;2023-04-01T05:55:13;8.38;;;2.30;;
51664;SDS011;37751;52.408;12.536;2023-04-01T05:57:41;7.35;;;2.25;;
51664;SDS011;37751;52.408;12.536;2023-04-01T06:00:09;7.32;;;2.17;;
51664;SDS011;37751;52.408;12.536;2023-04-01T06:02:41;7.47;;;2.40;;
51664;SDS011;37751;52.408;12.536;2023-04-01T06:07:45;11.68;;;2.58;;
51664;SDS011;37751;52.408;12.536;2023-04-01T06:10:16;6.70;;;2.40;;
51664;SDS011;37751;52.408;12.536;2023-04-01T06:12:53;5.20;;;1.85;;
51664;SDS011;37751;52.408;12.536;2023-04-01T06:15:39;9.13;;;4.05;;
51664;SDS011;37751;52.408;12.536;2023-04-01T06:41:57;9.18;;;1.88;;
51664;SDS011;37751;52.408;12.536;2023-04-01T06:57:02;3.30;;;1.35;;
51664;SDS011;37751;52.408;12.536;2023-04-01T06:59:46;6.18;;;2.15;;
51664;SDS011;37751;52.408;12.536;2023-04-01T07:02:36;5.38;;;1.40;;
51664;SDS011;37751;52.408;12.536;2023-04-01T07:05:11;7.65;;;1.88;;
51664;SDS011;37751;52.408;12.536;2023-04-01T07:07:49;7.68;;;1.73;;
51664;SDS011;37751;52.408;12.536;2023-04-01T07:13:53;6.85;;;1.65;;
51664;SDS011;37751;52.408;12.536;2023-04-01T07:16:38;7.05;;;1.90;;
51664;SDS011;37751;52.408;12.536;2023-04-01T07:19:17;6.13;;;1.70;;
51664;SDS011;37751;52.408;12.536;2023-04-01T07:25:22;6.85;;;2.03;;
51664;SDS011;37751;52.408;12.536;2023-04-01T07:28:22;4.13;;;1.63;;
51664;SDS011;37751;52.408;12.536;2023-04-01T07:34:23;6.20;;;1.77;;
51664;SDS011;37751;52.408;12.536;2023-04-01T07:37:09;9.07;;;1.77;;
51664;SDS011;37751;52.408;12.536;2023-04-01T07:45:31;11.20;;;1.88;;
51664;SDS011;37751;52.408;12.536;2023-04-01T07:48:28;4.53;;;1.30;;
51664;SDS011;37751;52.408;12.536;2023-04-01T07:51:19;6.93;;;1.95;;
51664;SDS011;37751;52.408;12.536;2023-04-01T07:57:03;5.70;;;1.50;;
51664;SDS011;37751;52.408;12.536;2023-04-01T08:03:57;6.25;;;1.90;;
51664;SDS011;37751;52.408;12.536;2023-04-01T08:07:13;8.52;;;3.55;;
51664;SDS011;37751;52.408;12.536;2023-04-01T08:23:19;5.95;;;1.60;;
51664;SDS011;37751;52.408;12.536;2023-04-01T08:25:58;12.80;;;4.88;;
51664;SDS011;37751;52.408;12.536;2023-04-01T08:28:37;5.60;;;1.80;;
51664;SDS011;37751;52.408;12.536;2023-04-01T08:31:34;7.75;;;1.52;;
51664;SDS011;37751;52.408;12.536;2023-04-01T08:34:17;5.70;;;1.98;;
51664;SDS011;37751;52.408;12.536;2023-04-01T08:37:04;5.47;;;2.60;;
51664;SDS011;37751;52.408;12.536;2023-04-01T08:39:46;4.47;;;1.73;;
51664;SDS011;37751;52.408;12.536;2023-04-01T09:03:31;7.47;;;1.73;;
51664;SDS011;37751;52.408;12.536;2023-04-01T09:22:20;3.95;;;1.20;;
51664;SDS011;37751;52.408;12.536;2023-04-01T09:36:12;4.57;;;1.10;;
51664;SDS011;37751;52.408;12.536;2023-04-01T09:39:11;2.35;;;1.20;;
51664;SDS011;37751;52.408;12.536;2023-04-01T09:47:57;3.35;;;0.80;;
51664;SDS011;37751;52.408;12.536;2023-04-01T09:56:57;1.15;;;0.60;;
51664;SDS011;37751;52.408;12.536;2023-04-01T10:03:13;1.85;;;1.00;;
51664;SDS011;37751;52.408;12.536;2023-04-01T10:53:38;5.03;;;3.00;;
51664;SDS011;37751;52.408;12.536;2023-04-01T11:14:30;3.42;;;2.83;;
51664;SDS011;37751;52.408;12.536;2023-04-01T11:36:43;5.55;;;4.97;;
51664;SDS011;37751;52.408;12.536;2023-04-01T11:45:20;8.40;;;6.32;;
51664;SDS011;37751;52.408;12.536;2023-04-01T11:48:26;6.65;;;5.82;;
51664;SDS011;37751;52.408;12.536;2023-04-01T11:51:46;7.55;;;6.38;;
51664;SDS011;37751;52.408;12.536;2023-04-01T11:54:37;8.30;;;7.13;;
51664;SDS011;37751;52.408;12.536;2023-04-01T12:09:49;9.45;;;7.60;;
51664;SDS011;37751;52.408;12.536;2023-04-01T12:12:46;8.95;;;7.72;;
51664;SDS011;37751;52.408;12.536;2023-04-01T12:15:36;9.18;;;7.75;;
51664;SDS011;37751;52.408;12.536;2023-04-01T12:18:13;11.23;;;8.25;;
51664;SDS011;37751;52.408;12.536;2023-04-01T12:32:51;7.70;;;6.90;;
51664;SDS011;37751;52.408;12.536;2023-04-01T12:35:41;9.18;;;6.82;;
51664;SDS011;37751;52.408;12.536;2023-04-01T12:38:48;7.60;;;6.90;;
51664;SDS011;37751;52.408;12.536;2023-04-01T12:41:42;7.43;;;6.35;;
51664;SDS011;37751;52.408;12.536;2023-04-01T12:55:52;11.40;;;7.50;;
51664;SDS011;37751;52.408;12.536;2023-04-01T13:04:53;7.30;;;6.60;;
51664;SDS011;37751;52.408;12.536;2023-04-01T13:19:08;9.02;;;8.10;;
51664;SDS011;37751;52.408;12.536;2023-04-01T13:21:56;8.10;;;7.13;;
51664;SDS011;37751;52.408;12.536;2023-04-01T13:24:31;7.33;;;6.63;;
51664;SDS011;37751;52.408;12.536;2023-04-01T13:32:46;6.77;;;6.17;;
51664;SDS011;37751;52.408;12.536;2023-04-01T13:38:43;7.10;;;6.40;;
51664;SDS011;37751;52.408;12.536;2023-04-01T13:44:42;9.67;;;7.13;;
51664;SDS011;37751;52.408;12.536;2023-04-01T14:00:10;6.73;;;6.07;;
51664;SDS011;37751;52.408;12.536;2023-04-01T14:02:55;11.30;;;7.10;;
51664;SDS011;37751;52.408;12.536;2023-04-01T14:08:56;5.67;;;4.90;;
51664;SDS011;37751;52.408;12.536;2023-04-01T14:11:56;9.03;;;4.83;;
51664;SDS011;37751;52.408;12.536;2023-04-01T14:17:40;6.40;;;4.90;;
51664;SDS011;37751;52.408;12.536;2023-04-01T14:32:37;5.40;;;3.70;;
51664;SDS011;37751;52.408;12.536;2023-04-01T14:35:25;5.17;;;4.00;;
51664;SDS011;37751;52.408;12.536;2023-04-01T14:38:27;5.40;;;3.60;;
51664;SDS011;37751;52.408;12.536;2023-04-01T14:41:12;8.73;;;3.87;;
51664;SDS011;37751;52.408;12.536;2023-04-01T14:49:42;6.80;;;2.77;;
51664;SDS011;37751;52.408;12.536;2023-04-01T14:54:49;5.67;;;4.07;;
51664;SDS011;37751;52.408;12.536;2023-04-01T15:00:16;4.63;;;3.90;;
51664;SDS011;37751;52.408;12.536;2023-04-01T15:09:11;7.13;;;4.40;;
51664;SDS011;37751;52.408;12.536;2023-04-01T15:15:24;9.70;;;6.20;;
51664;SDS011;37751;52.408;12.536;2023-04-01T15:18:08;6.93;;;5.33;;
51664;SDS011;37751;52.408;12.536;2023-04-01T15:23:57;7.50;;;5.73;;
51664;SDS011;37751;52.408;12.536;2023-04-01T15:38:33;7.30;;;4.93;;
51664;SDS011;37751;52.408;12.536;2023-04-01T16:04:14;4.93;;;3.87;;
51664;SDS011;37751;52.408;12.536;2023-04-01T16:16:23;6.07;;;4.20;;
51664;SDS011;37751;52.408;12.536;2023-04-01T16:36:48;4.93;;;3.50;;
51664;SDS011;37751;52.408;12.536;2023-04-01T16:39:34;4.13;;;3.27;;
51664;SDS011;37751;52.408;12.536;2023-04-01T16:45:43;6.13;;;3.03;;
51664;SDS011;37751;52.408;12.536;2023-04-01T16:51:37;4.80;;;3.00;;
51664;SDS011;37751;52.408;12.536;2023-04-01T16:54:18;5.27;;;3.47;;
51664;SDS011;37751;52.408;12.536;2023-04-01T17:00:28;3.97;;;2.90;;
51664;SDS011;37751;52.408;12.536;2023-04-01T17:03:11;4.13;;;3.10;;
51664;SDS011;37751;52.408;12.536;2023-04-01T17:21:21;7.03;;;3.70;;
51664;SDS011;37751;52.408;12.536;2023-04-01T17:30:25;5.50;;;3.20;;
51664;SDS011;37751;52.408;12.536;2023-04-01T17:33:13;5.33;;;3.40;;
51664;SDS011;37751;52.408;12.536;2023-04-01T17:50:30;8.70;;;5.10;;
51664;SDS011;37751;52.408;12.536;2023-04-01T17:56:04;6.23;;;4.00;;
51664;SDS011;37751;52.408;12.536;2023-04-01T18:04:36;4.73;;;3.30;;
51664;SDS011;37751;52.408;12.536;2023-04-01T18:07:20;4.50;;;2.80;;
51664;SDS011;37751;52.408;12.536;2023-04-01T18:10:10;3.73;;;2.40;;
51664;SDS011;37751;52.408;12.536;2023-04-01T18:16:09;3.63;;;2.03;;
51664;SDS011;37751;52.408;12.536;2023-04-01T18:36:20;3.20;;;2.57;;
51664;SDS011;37751;52.408;12.536;2023-04-01T18:39:17;4.90;;;2.87;;
51664;SDS011;37751;52.408;12.536;2023-04-01T18:41:55;5.57;;;3.87;;
51664;SDS011;37751;52.408;12.536;2023-04-01T18:44:56;4.77;;;2.83;;
51664;SDS011;37751;52.408;12.536;2023-04-01T18:47:38;14.83;;;5.77;;
51664;SDS011;37751;52.408;12.536;2023-04-01T18:56:05;5.00;;;3.33;;
51664;SDS011;37751;52.408;12.536;2023-04-01T19:04:38;6.03;;;4.03;;
51664;SDS011;37751;52.408;12.536;2023-04-01T19:10:40;4.90;;;3.40;;
51664;SDS011;37751;52.408;12.536;2023-04-01T19:13:35;5.80;;;3.83;;
51664;SDS011;37751;52.408;12.536;2023-04-01T19:16:28;5.80;;;3.00;;
51664;SDS011;37751;52.408;12.536;2023-04-01T19:28:15;7.57;;;4.33;;
51664;SDS011;37751;52.408;12.536;2023-04-01T19:42:11;7.07;;;4.80;;
51664;SDS011;37751;52.408;12.536;2023-04-01T19:54:38;8.77;;;5.43;;
51664;SDS011;37751;52.408;12.536;2023-04-01T20:00:28;7.50;;;5.17;;
51664;SDS011;37751;52.408;12.536;2023-04-01T20:06:31;9.67;;;5.43;;
51664;SDS011;37751;52.408;12.536;2023-04-01T20:18:13;7.43;;;5.10;;
51664;SDS011;37751;52.408;12.536;2023-04-01T20:20:59;13.00;;;5.90;;
51664;SDS011;37751;52.408;12.536;2023-04-01T20:26:11;10.83;;;6.40;;
51664;SDS011;37751;52.408;12.536;2023-04-01T20:31:53;11.43;;;6.17;;
51664;SDS011;37751;52.408;12.536;2023-04-01T20:40:19;9.30;;;5.73;;
51664;SDS011;37751;52.408;12.536;2023-04-01T20:46:22;12.47;;;5.70;;
51664;SDS011;37751;52.408;12.536;2023-04-01T21:13:10;11.10;;;6.57;;
51664;SDS011;37751;52.408;12.536;2023-04-01T21:24:35;11.60;;;6.73;;
51664;SDS011;37751;52.408;12.536;2023-04-01T21:30:12;10.57;;;6.37;;
51664;SDS011;37751;52.408;12.536;2023-04-01T21:33:15;12.07;;;6.53;;
51664;SDS011;37751;52.408;12.536;2023-04-01T21:36:20;8.37;;;6.03;;
51664;SDS011;37751;52.408;12.536;2023-04-01T21:41:48;13.57;;;7.40;;
51664;SDS011;37751;52.408;12.536;2023-04-01T22:02:57;10.67;;;5.70;;
51664;SDS011;37751;52.408;12.536;2023-04-01T22:08:32;8.93;;;5.70;;
51664;SDS011;37751;52.408;12.536;2023-04-01T22:11:29;15.30;;;7.23;;
51664;SDS011;37751;52.408;12.536;2023-04-01T22:16:59;10.80;;;5.27;;
51664;SDS011;37751;52.408;12.536;2023-04-01T22:20:07;12.33;;;5.57;;
51664;SDS011;37751;52.408;12.536;2023-04-01T22:29:04;12.40;;;5.53;;
51664;SDS011;37751;52.408;12.536;2023-04-01T22:31:49;10.37;;;5.30;;
51664;SDS011;37751;52.408;12.536;2023-04-01T22:37:33;11.00;;;4.87;;
51664;SDS011;37751;52.408;12.536;2023-04-01T22:43:36;7.93;;;4.07;;
51664;SDS011;37751;52.408;12.536;2023-04-01T22:51:57;4.90;;;3.33;;
51664;SDS011;37751;52.408;12.536;2023-04-01T22:54:46;14.87;;;3.70;;
51664;SDS011;37751;52.408;12.536;2023-04-01T22:59:58;9.17;;;3.90;;
51664;SDS011;37751;52.408;12.536;2023-04-01T23:02:43;6.70;;;3.03;;
51664;SDS011;37751;52.408;12.536;2023-04-01T23:05:18;9.57;;;4.23;;
51664;SDS011;37751;52.408;12.536;2023-04-01T23:10:42;13.60;;;5.20;;
51664;SDS011;37751;52.408;12.536;2023-04-01T23:13:18;12.00;;;3.90;;
51664;SDS011;37751;52.408;12.536;2023-04-01T23:15:52;5.33;;;2.90;;
51664;SDS011;37751;52.408;12.536;2023-04-01T23:18:27;6.40;;;3.33;;
51664;SDS011;37751;52.408;12.536;2023-04-01T23:21:22;6.70;;;3.30;;
51664;SDS011;37751;52.408;12.536;2023-04-01T23:24:11;11.17;;;3.67;;
51664;SDS011;37751;52.408;12.536;2023-04-01T23:26:53;6.47;;;3.93;;
51664;SDS011;37751;52.408;12.536;2023-04-01T23:29:22;8.90;;;3.70;;
51664;SDS011;37751;52.408;12.536;2023-04-01T23:32:00;5.23;;;3.50;;
51664;SDS011;37751;52.408;12.536;2023-04-01T23:34:38;5.97;;;3.53;;
51664;SDS011;37751;52.408;12.536;2023-04-01T23:37:10;9.10;;;3.53;;
51664;SDS011;37751;52.408;12.536;2023-04-01T23:39:39;4.83;;;3.20;;
51664;SDS011;37751;52.408;12.536;2023-04-01T23:42:21;4.13;;;3.00;;
51664;SDS011;37751;52.408;12.536;2023-04-01T23:44:55;7.97;;;3.30;;
51664;SDS011;37751;52.408;12.536;2023-04-01T23:47:40;6.13;;;3.20;;
51664;SDS011;37751;52.408;12.536;2023-04-01T23:50:18;6.23;;;3.20;;
51664;SDS011;37751;52.408;12.536;2023-04-01T23:53:00;9.90;;;3.40;;
51664;SDS011;37751;52.408;12.536;2023-04-01T23:55:33;8.60;;;2.60;;
